Terminal Aerodrome Forecast
Issued by NWS Cleveland, OH

Home | Current Version | Previous Version | Graphics & Text | Print | Product List | Glossary Off
Versions: 1 2 3 4 5 6 7 8 9 10 11 12 13

000
FTUS41 KCLE 292300
TAFERI
TAF
KERI 292331Z 3000/3024 27010KT 6SM -SHRA BKN025 OVC040
      TEMPO 3000/3004 SCT025 OVC040
     FM300900 32006KT P6SM BKN018
     FM301800 28010KT P6SM SCT018 OVC020=

USA.gov is the U.S. government's official web portal to all federal, state and local government web resources and services.